createdAt,value
2023-04-04T00:01:38.841Z,0.30
2023-04-04T00:04:09.436Z,0.35
2023-04-04T00:06:44.714Z,1.02
2023-04-04T00:09:16.388Z,0.55
2023-04-04T00:11:47.171Z,0.60
2023-04-04T00:14:18.974Z,0.40
2023-04-04T00:16:50.142Z,0.30
2023-04-04T00:19:20.705Z,0.35
2023-04-04T00:21:52.088Z,0.22
2023-04-04T00:24:22.905Z,0.40
2023-04-04T00:26:54.500Z,0.80
2023-04-04T00:29:33.148Z,0.40
2023-04-04T00:33:11.430Z,0.50
2023-04-04T00:35:42.176Z,0.50
2023-04-04T00:38:12.707Z,0.50
2023-04-04T00:40:49.619Z,0.35
2023-04-04T00:43:39.035Z,0.22
2023-04-04T00:46:13.143Z,0.60
2023-04-04T00:48:44.640Z,0.70
2023-04-04T00:51:15.329Z,0.50
2023-04-04T00:53:50.288Z,0.55
2023-04-04T00:56:22.825Z,1.23
2023-04-04T00:58:53.679Z,0.55
2023-04-04T01:01:24.724Z,0.73
2023-04-04T01:03:56.079Z,1.05
2023-04-04T01:06:26.608Z,0.50
2023-04-04T01:08:57.640Z,0.98
2023-04-04T01:11:47.940Z,0.30
2023-04-04T01:14:37.877Z,0.60
2023-04-04T01:17:09.930Z,0.63
2023-04-04T01:20:09.957Z,0.30
2023-04-04T01:22:46.089Z,1.10
2023-04-04T01:25:19.066Z,0.30
2023-04-04T01:27:50.780Z,0.57
2023-04-04T01:30:22.181Z,0.40
2023-04-04T01:33:22.406Z,0.88
2023-04-04T01:36:06.963Z,0.50
2023-04-04T01:38:54.041Z,0.40
2023-04-04T01:41:26.003Z,0.65
2023-04-04T01:43:58.232Z,0.85
2023-04-04T01:46:29.741Z,0.57
2023-04-04T01:49:00.949Z,0.40
2023-04-04T01:51:33.039Z,0.73
2023-04-04T01:54:04.228Z,0.50
2023-04-04T01:56:35.053Z,0.32
2023-04-04T01:59:05.887Z,0.40
2023-04-04T02:01:37.156Z,0.40
2023-04-04T02:04:09.408Z,0.38
2023-04-04T02:06:39.844Z,0.52
2023-04-04T02:09:10.910Z,0.63
2023-04-04T02:11:41.881Z,0.50
2023-04-04T02:14:12.663Z,0.40
2023-04-04T02:16:43.422Z,0.30
2023-04-04T02:19:13.873Z,0.43
2023-04-04T02:21:44.145Z,0.70
2023-04-04T02:24:14.972Z,0.40
2023-04-04T02:26:45.632Z,0.50
2023-04-04T02:29:17.559Z,0.50
2023-04-04T02:31:48.221Z,0.43
2023-04-04T02:34:20.900Z,0.70
2023-04-04T02:36:52.109Z,0.77
2023-04-04T02:39:23.719Z,0.70
2023-04-04T02:41:54.071Z,0.80
2023-04-04T02:44:24.931Z,0.45
2023-04-04T02:46:55.226Z,0.75
2023-04-04T02:49:25.582Z,0.73
2023-04-04T02:51:56.591Z,0.50
2023-04-04T02:54:27.262Z,0.70
2023-04-04T02:56:59.428Z,0.68
2023-04-04T02:59:30.184Z,0.98
2023-04-04T03:02:02.342Z,0.60
2023-04-04T03:04:33.960Z,0.80
2023-04-04T03:07:05.651Z,0.50
2023-04-04T03:09:36.025Z,0.52
2023-04-04T03:12:07.371Z,0.47
2023-04-04T03:14:37.638Z,1.10
2023-04-04T03:17:08.133Z,0.73
2023-04-04T03:19:38.661Z,0.47
2023-04-04T03:22:09.328Z,0.40
2023-04-04T03:24:40.344Z,1.30
2023-04-04T03:27:11.198Z,0.68
2023-04-04T03:29:41.756Z,0.88
2023-04-04T03:32:12.281Z,0.60
2023-04-04T03:34:42.511Z,0.85
2023-04-04T03:37:13.046Z,0.70
2023-04-04T03:39:43.642Z,1.02
2023-04-04T03:42:14.334Z,0.43
2023-04-04T03:44:45.100Z,0.50
2023-04-04T03:47:16.185Z,0.47
2023-04-04T03:49:46.806Z,0.50
2023-04-04T03:52:17.914Z,0.50
2023-04-04T03:54:48.751Z,0.43
2023-04-04T03:57:20.371Z,0.25
2023-04-04T03:59:51.057Z,0.40
2023-04-04T04:02:22.130Z,0.60
2023-04-04T04:04:52.437Z,0.43
2023-04-04T04:07:23.182Z,0.30
2023-04-04T04:09:53.494Z,0.45
2023-04-04T04:12:23.826Z,0.40
2023-04-04T04:14:54.563Z,0.60
2023-04-04T04:17:24.913Z,0.22
2023-04-04T04:19:55.116Z,0.30
2023-04-04T04:22:26.062Z,0.30
2023-04-04T04:24:56.342Z,0.52
2023-04-04T04:27:26.647Z,0.43
2023-04-04T04:29:56.914Z,0.43
2023-04-04T04:32:28.273Z,0.35
2023-04-04T04:35:00.164Z,0.40
2023-04-04T04:37:31.189Z,0.25
2023-04-04T04:40:03.016Z,0.55
2023-04-04T04:42:33.519Z,0.30
2023-04-04T04:45:03.844Z,0.20
2023-04-04T04:47:34.596Z,0.47
2023-04-04T04:50:06.170Z,0.60
2023-04-04T04:52:38.832Z,0.40
2023-04-04T04:55:10.065Z,0.90
2023-04-04T04:57:44.434Z,0.30
2023-04-04T05:00:15.355Z,0.82
2023-04-04T05:02:46.405Z,0.40
2023-04-04T05:05:17.090Z,0.60
2023-04-04T05:07:50.838Z,1.00
2023-04-04T05:10:21.116Z,0.60
2023-04-04T05:12:51.456Z,0.45
2023-04-04T05:15:23.657Z,0.40
2023-04-04T05:17:54.232Z,0.57
2023-04-04T05:20:25.133Z,0.40
2023-04-04T05:22:55.689Z,0.45
2023-04-04T05:25:25.880Z,0.52
2023-04-04T05:27:57.439Z,0.40
2023-04-04T05:30:27.822Z,0.60
2023-04-04T05:32:58.217Z,0.65
2023-04-04T05:35:28.570Z,0.47
2023-04-04T05:38:00.380Z,0.57
2023-04-04T05:40:31.148Z,0.40
2023-04-04T05:43:06.294Z,0.50
2023-04-04T05:45:38.388Z,0.63
2023-04-04T05:48:09.945Z,0.85
2023-04-04T05:50:41.819Z,0.80
2023-04-04T05:53:13.251Z,1.10
2023-04-04T05:55:44.867Z,0.70
2023-04-04T05:58:15.179Z,0.50
2023-04-04T06:00:46.446Z,0.40
2023-04-04T06:03:18.359Z,0.50
2023-04-04T06:05:54.549Z,0.50
2023-04-04T06:08:35.352Z,1.60
2023-04-04T06:11:10.602Z,0.85
2023-04-04T06:13:41.183Z,0.52
2023-04-04T06:16:11.710Z,0.40
2023-04-04T06:18:43.410Z,0.50
2023-04-04T06:21:15.058Z,0.70
2023-04-04T06:23:45.579Z,0.50
2023-04-04T06:26:16.577Z,1.08
2023-04-04T06:28:53.093Z,0.50
2023-04-04T06:33:54.079Z,0.60
2023-04-04T06:36:24.823Z,0.90
2023-04-04T06:38:55.134Z,0.77
2023-04-04T06:41:26.163Z,0.40
2023-04-04T06:43:56.500Z,0.75
2023-04-04T06:46:28.821Z,0.60
2023-04-04T06:48:59.032Z,0.20
2023-04-04T06:51:29.538Z,0.45
2023-04-04T06:54:00.157Z,0.47
2023-04-04T06:56:30.937Z,0.40
2023-04-04T06:59:01.248Z,0.52
2023-04-04T07:01:31.619Z,0.88
2023-04-04T07:04:03.028Z,0.30
2023-04-04T07:06:33.694Z,0.30
2023-04-04T07:09:08.924Z,0.40
2023-04-04T07:11:43.230Z,0.40
2023-04-04T07:14:13.559Z,0.43
2023-04-04T07:16:44.334Z,0.40
2023-04-04T07:19:15.139Z,0.60
2023-04-04T07:21:46.679Z,0.40
2023-04-04T07:24:16.993Z,0.45
2023-04-04T07:26:47.825Z,0.40
2023-04-04T07:29:18.317Z,0.40
2023-04-04T07:31:48.854Z,0.60
2023-04-04T07:34:19.341Z,0.30
2023-04-04T07:36:50.338Z,0.32
2023-04-04T07:39:20.617Z,0.40
2023-04-04T07:41:50.854Z,0.85
2023-04-04T07:44:21.194Z,0.47
2023-04-04T07:46:59.017Z,0.65
2023-04-04T07:49:33.538Z,0.70
2023-04-04T07:52:04.004Z,0.40
2023-04-04T07:54:34.814Z,0.50
2023-04-04T07:57:08.139Z,1.00
2023-04-04T07:59:40.955Z,0.55
2023-04-04T08:02:11.224Z,0.93
2023-04-04T08:04:42.109Z,1.50
2023-04-04T08:07:12.750Z,1.30
2023-04-04T08:09:42.978Z,0.80
2023-04-04T08:12:13.324Z,0.80
2023-04-04T08:14:43.794Z,1.00
2023-04-04T08:17:14.528Z,2.05
2023-04-04T08:19:44.856Z,1.77
2023-04-04T08:22:15.776Z,1.00
2023-04-04T08:24:46.304Z,1.10
2023-04-04T08:27:19.837Z,0.77
2023-04-04T08:29:50.165Z,0.93
2023-04-04T08:32:20.717Z,0.73
2023-04-04T08:34:52.323Z,0.88
2023-04-04T08:37:23.545Z,0.85
2023-04-04T08:39:53.954Z,0.60
2023-04-04T08:42:25.162Z,0.40
2023-04-04T08:44:59.630Z,0.45
2023-04-04T08:47:32.323Z,0.30
2023-04-04T08:50:08.826Z,0.50
2023-04-04T08:52:43.944Z,0.68
2023-04-04T08:55:17.817Z,0.98
2023-04-04T08:57:48.694Z,1.08
2023-04-04T09:00:19.619Z,0.50
2023-04-04T09:03:00.054Z,0.52
2023-04-04T09:05:32.699Z,1.65
2023-04-04T09:08:06.223Z,1.08
2023-04-04T09:10:38.509Z,1.00
2023-04-04T09:13:16.305Z,2.85
2023-04-04T09:15:59.598Z,1.50
2023-04-04T09:18:32.132Z,1.20
2023-04-04T09:21:10.805Z,1.60
2023-04-04T09:23:41.809Z,1.35
2023-04-04T09:26:14.113Z,1.20
2023-04-04T09:28:45.645Z,1.30
2023-04-04T09:31:16.028Z,1.40
2023-04-04T09:33:47.576Z,1.63
2023-04-04T09:36:20.834Z,1.27
2023-04-04T09:38:55.611Z,0.75
2023-04-04T09:41:50.262Z,1.63
2023-04-04T09:44:40.278Z,0.50
2023-04-04T09:47:33.510Z,0.50
2023-04-04T09:50:07.444Z,0.43
2023-04-04T09:52:46.015Z,0.57
2023-04-04T09:55:17.043Z,0.57
2023-04-04T09:57:50.578Z,0.80
2023-04-04T10:00:25.344Z,0.40
2023-04-04T10:03:02.161Z,1.23
2023-04-04T10:05:33.677Z,0.70
2023-04-04T10:08:26.311Z,0.40
2023-04-04T10:11:11.016Z,0.55
2023-04-04T10:13:46.191Z,0.40
2023-04-04T10:16:17.393Z,0.50
2023-04-04T10:18:49.188Z,0.63
2023-04-04T10:21:21.079Z,0.52
2023-04-04T10:23:53.113Z,0.50
2023-04-04T10:26:25.269Z,1.13
2023-04-04T10:28:56.395Z,0.50
2023-04-04T10:31:28.444Z,0.85
2023-04-04T10:34:20.040Z,0.50
2023-04-04T10:37:16.471Z,0.60
2023-04-04T10:39:58.831Z,0.43
2023-04-04T10:42:33.134Z,0.50
2023-04-04T10:45:19.327Z,0.60
2023-04-04T10:47:51.734Z,0.50
2023-04-04T10:50:26.505Z,0.55
2023-04-04T10:52:59.825Z,0.70
2023-04-04T10:55:34.051Z,0.75
2023-04-04T10:58:05.496Z,0.50
2023-04-04T11:00:36.475Z,0.52
2023-04-04T11:03:08.087Z,0.55
2023-04-04T11:05:49.179Z,1.20
2023-04-04T11:08:32.188Z,1.20
2023-04-04T11:11:09.669Z,1.10
2023-04-04T11:14:05.669Z,1.10
2023-04-04T11:16:49.192Z,1.45
2023-04-04T11:19:20.290Z,1.63
2023-04-04T11:21:54.451Z,2.25
2023-04-04T11:24:26.246Z,1.40
2023-04-04T11:26:58.247Z,0.98
2023-04-04T11:29:55.215Z,1.45
2023-04-04T11:33:04.026Z,0.70
2023-04-04T11:35:41.322Z,1.23
2023-04-04T11:38:31.805Z,1.25
2023-04-04T11:41:04.281Z,1.42
2023-04-04T11:43:38.331Z,0.70
2023-04-04T11:46:11.028Z,0.80
2023-04-04T11:48:41.997Z,0.98
2023-04-04T11:51:13.276Z,1.30
2023-04-04T11:53:46.765Z,0.90
2023-04-04T11:56:19.021Z,0.80
2023-04-04T11:59:01.551Z,0.60
2023-04-04T12:01:39.365Z,0.93
2023-04-04T12:04:10.118Z,0.80
2023-04-04T12:06:41.710Z,0.77
2023-04-04T12:09:19.592Z,0.60
2023-04-04T12:11:51.802Z,1.35
2023-04-04T12:14:23.802Z,0.80
2023-04-04T12:17:01.773Z,0.95
2023-04-04T12:19:33.367Z,0.85
2023-04-04T12:22:05.364Z,0.70
2023-04-04T12:24:36.554Z,1.10
2023-04-04T12:27:08.409Z,0.70
2023-04-04T12:29:41.373Z,0.68
2023-04-04T12:32:12.932Z,0.65
2023-04-04T12:34:51.124Z,0.70
2023-04-04T12:37:24.322Z,0.90
2023-04-04T12:39:55.689Z,1.17
2023-04-04T12:42:28.437Z,0.88
2023-04-04T12:45:00.807Z,0.70
2023-04-04T12:47:32.922Z,0.68
2023-04-04T12:50:03.619Z,1.02
2023-04-04T12:52:35.528Z,1.15
2023-04-04T12:55:12.878Z,0.70
2023-04-04T12:57:43.423Z,0.63
2023-04-04T13:00:16.086Z,0.50
2023-04-04T13:02:48.780Z,0.70
2023-04-04T13:05:20.003Z,0.63
2023-04-04T13:07:50.513Z,0.60
2023-04-04T13:10:22.603Z,0.70
2023-04-04T13:13:05.458Z,0.52
2023-04-04T13:15:56.550Z,0.90
2023-04-04T13:18:29.126Z,0.75
2023-04-04T13:20:59.811Z,0.43
2023-04-04T13:23:30.570Z,0.60
2023-04-04T13:26:03.465Z,0.50
2023-04-04T13:28:35.487Z,0.60
2023-04-04T13:31:08.202Z,0.70
2023-04-04T13:33:40.112Z,0.50
2023-04-04T13:36:11.505Z,0.60
2023-04-04T13:38:42.533Z,0.63
2023-04-04T13:41:14.729Z,1.30
2023-04-04T13:43:45.017Z,0.70
2023-04-04T13:46:15.778Z,0.40
2023-04-04T13:48:46.501Z,0.70
2023-04-04T13:51:17.137Z,0.60
2023-04-04T13:53:47.497Z,0.85
2023-04-04T13:56:18.978Z,1.10
2023-04-04T13:58:51.702Z,0.68
2023-04-04T14:01:23.691Z,0.50
2023-04-04T14:03:54.355Z,0.77
2023-04-04T14:06:25.036Z,0.50
2023-04-04T14:08:56.045Z,0.63
2023-04-04T14:11:27.803Z,0.73
2023-04-04T14:13:58.443Z,0.50
2023-04-04T14:16:29.156Z,0.75
2023-04-04T14:18:59.501Z,0.40
2023-04-04T14:21:30.347Z,0.80
2023-04-04T14:24:00.992Z,0.45
2023-04-04T14:26:34.148Z,0.38
2023-04-04T14:29:05.809Z,0.40
2023-04-04T14:31:37.177Z,0.60
2023-04-04T14:34:08.137Z,0.50
2023-04-04T14:36:38.677Z,0.63
2023-04-04T14:39:09.122Z,0.73
2023-04-04T14:41:41.776Z,0.40
2023-04-04T14:44:12.523Z,0.38
2023-04-04T14:46:42.956Z,0.45
2023-04-04T14:49:13.472Z,0.43
2023-04-04T14:51:43.830Z,0.60
2023-04-04T14:54:14.135Z,0.50
2023-04-04T14:56:44.622Z,0.50
2023-04-04T14:59:14.936Z,0.68
2023-04-04T15:01:45.380Z,0.65
2023-04-04T15:04:15.680Z,0.57
2023-04-04T15:06:46.379Z,0.40
2023-04-04T15:09:20.306Z,0.45
2023-04-04T15:11:53.380Z,0.50
2023-04-04T15:14:24.066Z,0.55
2023-04-04T15:16:55.339Z,1.58
2023-04-04T15:19:25.811Z,0.60
2023-04-04T15:21:58.683Z,0.60
2023-04-04T15:24:29.439Z,0.60
2023-04-04T15:27:01.156Z,0.50
2023-04-04T15:29:31.826Z,0.60
2023-04-04T15:32:02.154Z,0.65
2023-04-04T15:34:33.049Z,0.73
2023-04-04T15:37:06.289Z,0.65
2023-04-04T15:39:46.033Z,0.43
2023-04-04T15:42:20.542Z,0.70
2023-04-04T15:44:51.278Z,0.50
2023-04-04T15:47:21.652Z,0.73
2023-04-04T15:49:51.960Z,0.60
2023-04-04T15:52:22.283Z,0.50
2023-04-04T15:54:52.842Z,0.60
2023-04-04T15:57:23.143Z,0.75
2023-04-04T15:59:53.463Z,0.50
2023-04-04T16:02:23.879Z,0.57
2023-04-04T16:04:54.294Z,0.50
2023-04-04T16:07:25.080Z,1.02
2023-04-04T16:09:55.340Z,0.80
2023-04-04T16:12:44.483Z,0.70
2023-04-04T16:15:33.284Z,0.40
2023-04-04T16:18:05.724Z,0.90
2023-04-04T16:20:36.487Z,0.70
2023-04-04T16:23:06.823Z,0.50
2023-04-04T16:25:37.864Z,0.40
2023-04-04T16:28:08.327Z,0.75
2023-04-04T16:30:39.491Z,0.60
2023-04-04T16:33:10.089Z,0.57
2023-04-04T16:35:41.459Z,0.57
2023-04-04T16:38:12.273Z,0.50
2023-04-04T16:40:44.927Z,0.57
2023-04-04T16:43:15.342Z,0.38
2023-04-04T16:45:47.183Z,0.60
2023-04-04T16:48:18.382Z,0.75
2023-04-04T16:50:49.519Z,0.40
2023-04-04T16:53:20.281Z,0.70
2023-04-04T16:55:51.002Z,0.40
2023-04-04T16:58:22.870Z,0.65
2023-04-04T17:00:53.697Z,0.57
2023-04-04T17:03:25.596Z,0.40
2023-04-04T17:06:01.791Z,0.50
2023-04-04T17:08:32.584Z,1.20
2023-04-04T17:11:04.736Z,0.50
2023-04-04T17:13:35.580Z,0.52
2023-04-04T17:16:06.477Z,0.70
2023-04-04T17:18:37.508Z,0.80
2023-04-04T17:21:08.783Z,0.50
2023-04-04T17:23:40.118Z,0.63
2023-04-04T17:26:11.020Z,0.60
2023-04-04T17:28:42.634Z,0.60
2023-04-04T17:31:13.862Z,0.70
2023-04-04T17:33:44.166Z,1.50
2023-04-04T17:36:14.870Z,0.70
2023-04-04T17:38:45.660Z,0.50
2023-04-04T17:41:16.861Z,0.68
2023-04-04T17:43:47.727Z,1.25
2023-04-04T17:46:19.226Z,1.10
2023-04-04T17:48:50.339Z,0.57
2023-04-04T17:51:22.188Z,0.85
2023-04-04T17:53:54.862Z,0.80
2023-04-04T17:56:25.579Z,0.85
2023-04-04T17:59:00.438Z,0.88
2023-04-04T18:01:31.417Z,1.10
2023-04-04T18:04:03.144Z,1.30
2023-04-04T18:06:34.219Z,0.80
2023-04-04T18:09:05.888Z,0.88
2023-04-04T18:11:38.412Z,0.80
2023-04-04T18:14:09.054Z,0.95
2023-04-04T18:16:40.954Z,0.70
2023-04-04T18:19:13.225Z,0.70
2023-04-04T18:21:44.921Z,0.80
2023-04-04T18:24:16.362Z,0.50
2023-04-04T18:26:48.282Z,0.82
2023-04-04T18:29:18.935Z,0.52
2023-04-04T18:31:50.255Z,0.68
2023-04-04T18:34:22.333Z,0.50
2023-04-04T18:36:53.410Z,1.33
2023-04-04T18:39:24.195Z,0.63
2023-04-04T18:41:55.219Z,1.08
2023-04-04T18:44:25.951Z,0.70
2023-04-04T18:46:57.878Z,0.43
2023-04-04T18:49:28.869Z,0.50
2023-04-04T18:51:59.756Z,0.40
2023-04-04T18:54:30.599Z,0.47
2023-04-04T18:57:00.878Z,0.55
2023-04-04T18:59:32.294Z,0.50
2023-04-04T19:02:03.352Z,0.45
2023-04-04T19:04:38.353Z,0.82
2023-04-04T19:07:10.103Z,0.40
2023-04-04T19:09:42.039Z,0.63
2023-04-04T19:12:13.654Z,0.40
2023-04-04T19:14:44.322Z,0.40
2023-04-04T19:17:17.596Z,0.50
2023-04-04T19:19:49.992Z,0.35
2023-04-04T19:22:21.537Z,0.52
2023-04-04T19:24:51.894Z,1.10
2023-04-04T19:27:22.367Z,0.40
2023-04-04T19:29:52.956Z,0.95
2023-04-04T19:32:29.258Z,1.30
2023-04-04T19:35:01.193Z,1.45
2023-04-04T19:37:32.319Z,0.50
2023-04-04T19:40:02.629Z,0.70
2023-04-04T19:42:51.310Z,0.70
2023-04-04T19:45:57.479Z,0.60
2023-04-04T19:48:53.245Z,0.77
2023-04-04T19:51:23.882Z,0.70
2023-04-04T19:54:00.158Z,0.73
2023-04-04T19:56:31.705Z,0.70
2023-04-04T19:59:07.363Z,0.65
2023-04-04T20:01:44.739Z,1.08
2023-04-04T20:04:18.067Z,0.60
2023-04-04T20:06:50.779Z,0.75
2023-04-04T20:09:41.707Z,1.40
2023-04-04T20:12:13.977Z,0.52
2023-04-04T20:14:44.659Z,0.63
2023-04-04T20:17:15.461Z,1.10
2023-04-04T20:19:46.082Z,0.60
2023-04-04T20:22:18.417Z,0.77
2023-04-04T20:24:50.278Z,0.88
2023-04-04T20:27:29.462Z,0.52
2023-04-04T20:30:00.017Z,0.95
2023-04-04T20:32:30.631Z,1.38
2023-04-04T20:35:01.046Z,1.30
2023-04-04T20:37:33.373Z,1.20
2023-04-04T20:40:11.343Z,1.83
2023-04-04T20:42:42.698Z,1.50
2023-04-04T20:45:13.514Z,0.75
2023-04-04T20:48:08.173Z,0.90
2023-04-04T20:50:39.253Z,1.13
2023-04-04T20:53:11.402Z,1.20
2023-04-04T20:55:43.424Z,1.75
2023-04-04T20:58:33.886Z,1.35
2023-04-04T21:01:06.961Z,1.27
2023-04-04T21:03:39.847Z,0.90
2023-04-04T21:06:18.468Z,1.20
2023-04-04T21:08:53.811Z,1.02
2023-04-04T21:11:32.176Z,0.98
2023-04-04T21:14:02.726Z,1.13
2023-04-04T21:16:36.677Z,0.80
2023-04-04T21:19:08.157Z,1.08
2023-04-04T21:21:42.240Z,1.40
2023-04-04T21:24:14.356Z,1.50
2023-04-04T21:26:45.948Z,1.48
2023-04-04T21:29:30.251Z,0.95
2023-04-04T21:32:01.750Z,1.00
2023-04-04T21:34:34.028Z,1.38
2023-04-04T21:37:05.262Z,1.30
2023-04-04T21:39:37.994Z,1.35
2023-04-04T21:42:08.957Z,1.40
2023-04-04T21:44:40.359Z,1.98
2023-04-04T21:47:10.610Z,2.10
2023-04-04T21:49:41.020Z,1.80
2023-04-04T21:52:11.380Z,2.90
2023-04-04T21:54:42.039Z,2.10
2023-04-04T21:57:13.049Z,1.67
2023-04-04T21:59:43.725Z,1.60
2023-04-04T22:02:14.060Z,1.88
2023-04-04T22:04:44.393Z,1.35
2023-04-04T22:07:14.669Z,1.48
2023-04-04T22:09:44.927Z,1.85
2023-04-04T22:12:17.607Z,1.25
2023-04-04T22:14:52.256Z,1.20
2023-04-04T22:17:25.987Z,1.40
2023-04-04T22:20:02.010Z,1.25
2023-04-04T22:22:35.286Z,1.00
2023-04-04T22:25:06.557Z,1.05
2023-04-04T22:27:41.154Z,1.10
2023-04-04T22:30:11.825Z,1.23
2023-04-04T22:32:45.498Z,1.25
2023-04-04T22:35:15.818Z,1.20
2023-04-04T22:37:47.645Z,1.15
2023-04-04T22:40:17.960Z,1.10
2023-04-04T22:42:48.318Z,1.13
2023-04-04T22:45:18.650Z,1.42
2023-04-04T22:47:49.966Z,1.20
2023-04-04T22:50:24.482Z,1.10
2023-04-04T22:52:56.424Z,1.02
2023-04-04T22:55:28.709Z,1.25
2023-04-04T22:57:59.365Z,1.42
2023-04-04T23:00:29.624Z,1.20
2023-04-04T23:03:00.403Z,1.23
2023-04-04T23:05:34.247Z,1.23
2023-04-04T23:08:07.129Z,1.13
2023-04-04T23:10:39.238Z,1.20
2023-04-04T23:13:11.279Z,1.13
2023-04-04T23:15:43.467Z,1.08
2023-04-04T23:18:15.417Z,1.92
2023-04-04T23:20:46.147Z,0.85
2023-04-04T23:23:16.881Z,1.02
2023-04-04T23:25:47.973Z,1.20
2023-04-04T23:28:19.729Z,1.00
2023-04-04T23:30:53.201Z,0.90
2023-04-04T23:33:26.092Z,1.20
2023-04-04T23:36:00.688Z,1.02
2023-04-04T23:38:33.149Z,1.23
2023-04-04T23:41:10.898Z,1.23
2023-04-04T23:43:44.024Z,0.95
2023-04-04T23:46:17.999Z,1.25
2023-04-04T23:48:50.281Z,1.13
2023-04-04T23:51:20.999Z,1.50
2023-04-04T23:53:51.913Z,1.50
2023-04-04T23:56:24.057Z,1.15
2023-04-04T23:58:54.814Z,1.13
